sensor_id;sensor_type;location;lat;lon;timestamp;pressure;altitude;pressure_sealevel;temperature;humidity
18678;BME280;9469;51.114;13.914;2024-03-02T00:02:09;97779.75;;;11.13;100.00
18678;BME280;9469;51.114;13.914;2024-03-02T00:07:14;97767.75;;;11.07;100.00
18678;BME280;9469;51.114;13.914;2024-03-02T00:12:22;97748.16;;;13.25;100.00
18678;BME280;9469;51.114;13.914;2024-03-02T00:17:30;97756.22;;;13.13;100.00
18678;BME280;9469;51.114;13.914;2024-03-02T00:22:35;97758.41;;;13.23;100.00
18678;BME280;9469;51.114;13.914;2024-03-02T00:27:47;97754.75;;;13.43;100.00
18678;BME280;9469;51.114;13.914;2024-03-02T00:32:54;97754.16;;;12.82;100.00
18678;BME280;9469;51.114;13.914;2024-03-02T00:38:03;97758.22;;;12.16;100.00
18678;BME280;9469;51.114;13.914;2024-03-02T00:48:53;97770.50;;;12.81;100.00
18678;BME280;9469;51.114;13.914;2024-03-02T00:54:00;97764.16;;;12.98;100.00
18678;BME280;9469;51.114;13.914;2024-03-02T00:59:10;97767.13;;;13.08;100.00
18678;BME280;9469;51.114;13.914;2024-03-02T01:04:15;97766.63;;;12.78;100.00
18678;BME280;9469;51.114;13.914;2024-03-02T01:09:20;97776.75;;;12.73;100.00
18678;BME280;9469;51.114;13.914;2024-03-02T01:14:28;97759.22;;;12.48;100.00
18678;BME280;9469;51.114;13.914;2024-03-02T01:19:34;97743.78;;;12.29;100.00
18678;BME280;9469;51.114;13.914;2024-03-02T01:24:40;97744.31;;;12.59;100.00
18678;BME280;9469;51.114;13.914;2024-03-02T01:29:47;97749.66;;;12.10;100.00
18678;BME280;9469;51.114;13.914;2024-03-02T01:34:52;97753.84;;;11.75;100.00
18678;BME280;9469;51.114;13.914;2024-03-02T01:39:58;97751.31;;;12.63;100.00
18678;BME280;9469;51.114;13.914;2024-03-02T01:45:08;97749.38;;;13.28;100.00
18678;BME280;9469;51.114;13.914;2024-03-02T01:50:14;97750.88;;;13.13;100.00
18678;BME280;9469;51.114;13.914;2024-03-02T01:55:20;97755.56;;;13.04;100.00
18678;BME280;9469;51.114;13.914;2024-03-02T02:00:27;97750.94;;;12.77;100.00
18678;BME280;9469;51.114;13.914;2024-03-02T02:05:34;97748.75;;;12.55;100.00
18678;BME280;9469;51.114;13.914;2024-03-02T02:10:39;97741.78;;;12.90;100.00
18678;BME280;9469;51.114;13.914;2024-03-02T02:15:47;97753.88;;;12.23;100.00
18678;BME280;9469;51.114;13.914;2024-03-02T02:20:53;97737.66;;;12.29;100.00
18678;BME280;9469;51.114;13.914;2024-03-02T02:26:00;97731.84;;;12.51;100.00
18678;BME280;9469;51.114;13.914;2024-03-02T02:31:06;97740.13;;;12.85;100.00
18678;BME280;9469;51.114;13.914;2024-03-02T02:36:12;97733.13;;;12.93;100.00
18678;BME280;9469;51.114;13.914;2024-03-02T02:41:20;97742.44;;;12.23;100.00
18678;BME280;9469;51.114;13.914;2024-03-02T02:46:25;97733.63;;;12.59;100.00
18678;BME280;9469;51.114;13.914;2024-03-02T02:51:30;97738.53;;;11.96;100.00
18678;BME280;9469;51.114;13.914;2024-03-02T02:56:38;97730.31;;;12.62;100.00
18678;BME280;9469;51.114;13.914;2024-03-02T03:01:43;97732.75;;;12.31;100.00
18678;BME280;9469;51.114;13.914;2024-03-02T03:06:48;97740.78;;;12.18;100.00
18678;BME280;9469;51.114;13.914;2024-03-02T03:11:56;97734.44;;;12.23;100.00
18678;BME280;9469;51.114;13.914;2024-03-02T03:17:02;97738.81;;;11.38;100.00
18678;BME280;9469;51.114;13.914;2024-03-02T03:22:09;97740.44;;;11.63;100.00
18678;BME280;9469;51.114;13.914;2024-03-02T03:27:16;97738.06;;;11.37;100.00
18678;BME280;9469;51.114;13.914;2024-03-02T03:32:24;97738.63;;;11.43;100.00
18678;BME280;9469;51.114;13.914;2024-03-02T03:37:29;97742.31;;;11.50;100.00
18678;BME280;9469;51.114;13.914;2024-03-02T03:42:39;97733.88;;;11.48;100.00
18678;BME280;9469;51.114;13.914;2024-03-02T03:47:44;97727.06;;;11.72;100.00
18678;BME280;9469;51.114;13.914;2024-03-02T03:52:49;97730.84;;;11.71;100.00
18678;BME280;9469;51.114;13.914;2024-03-02T03:57:57;97728.56;;;11.48;100.00
18678;BME280;9469;51.114;13.914;2024-03-02T04:03:03;97727.28;;;11.34;100.00
18678;BME280;9469;51.114;13.914;2024-03-02T04:08:08;97735.44;;;11.29;100.00
18678;BME280;9469;51.114;13.914;2024-03-02T04:13:16;97737.31;;;11.16;100.00
18678;BME280;9469;51.114;13.914;2024-03-02T04:18:21;97732.09;;;11.20;100.00
18678;BME280;9469;51.114;13.914;2024-03-02T04:23:26;97730.63;;;11.10;100.00
18678;BME280;9469;51.114;13.914;2024-03-02T04:28:34;97737.31;;;11.16;100.00
18678;BME280;9469;51.114;13.914;2024-03-02T04:33:39;97746.00;;;11.25;100.00
18678;BME280;9469;51.114;13.914;2024-03-02T04:38:44;97755.03;;;11.12;100.00
18678;BME280;9469;51.114;13.914;2024-03-02T04:43:52;97763.53;;;11.06;100.00
18678;BME280;9469;51.114;13.914;2024-03-02T04:48:57;97770.88;;;11.62;100.00
18678;BME280;9469;51.114;13.914;2024-03-02T04:54:03;97772.97;;;11.89;100.00
18678;BME280;9469;51.114;13.914;2024-03-02T04:59:11;97778.84;;;11.62;100.00
18678;BME280;9469;51.114;13.914;2024-03-02T05:04:20;97790.19;;;11.38;100.00
18678;BME280;9469;51.114;13.914;2024-03-02T05:09:25;97782.72;;;10.91;100.00
18678;BME280;9469;51.114;13.914;2024-03-02T05:14:33;97778.09;;;10.29;100.00
18678;BME280;9469;51.114;13.914;2024-03-02T05:19:40;97784.38;;;10.54;100.00
18678;BME280;9469;51.114;13.914;2024-03-02T05:24:45;97789.00;;;10.36;100.00
18678;BME280;9469;51.114;13.914;2024-03-02T05:29:54;97785.06;;;10.71;100.00
18678;BME280;9469;51.114;13.914;2024-03-02T05:35:00;97796.38;;;11.10;100.00
18678;BME280;9469;51.114;13.914;2024-03-02T05:40:07;97817.16;;;11.37;100.00
18678;BME280;9469;51.114;13.914;2024-03-02T05:45:16;97816.78;;;11.06;100.00
18678;BME280;9469;51.114;13.914;2024-03-02T05:50:21;97817.78;;;11.34;100.00
18678;BME280;9469;51.114;13.914;2024-03-02T05:55:27;97822.81;;;11.15;100.00
18678;BME280;9469;51.114;13.914;2024-03-02T06:00:35;97829.94;;;10.73;100.00
18678;BME280;9469;51.114;13.914;2024-03-02T06:05:41;97843.81;;;10.87;100.00
18678;BME280;9469;51.114;13.914;2024-03-02T06:10:46;97845.13;;;10.72;100.00
18678;BME280;9469;51.114;13.914;2024-03-02T06:15:57;97850.72;;;10.79;100.00
18678;BME280;9469;51.114;13.914;2024-03-02T06:21:03;97858.13;;;10.95;100.00
18678;BME280;9469;51.114;13.914;2024-03-02T06:26:08;97854.00;;;11.47;100.00
18678;BME280;9469;51.114;13.914;2024-03-02T06:31:17;97856.69;;;11.26;100.00
18678;BME280;9469;51.114;13.914;2024-03-02T06:36:24;97865.44;;;11.06;100.00
18678;BME280;9469;51.114;13.914;2024-03-02T06:41:30;97864.16;;;11.33;100.00
18678;BME280;9469;51.114;13.914;2024-03-02T06:46:39;97875.69;;;10.96;100.00
18678;BME280;9469;51.114;13.914;2024-03-02T06:51:44;97888.00;;;11.00;100.00
18678;BME280;9469;51.114;13.914;2024-03-02T06:56:49;97888.63;;;11.06;100.00
18678;BME280;9469;51.114;13.914;2024-03-02T07:01:58;97890.34;;;11.02;100.00
18678;BME280;9469;51.114;13.914;2024-03-02T07:07:03;97898.19;;;11.48;100.00
18678;BME280;9469;51.114;13.914;2024-03-02T07:12:09;97898.47;;;11.55;100.00
18678;BME280;9469;51.114;13.914;2024-03-02T07:17:17;97901.78;;;11.02;100.00
18678;BME280;9469;51.114;13.914;2024-03-02T07:22:22;97904.16;;;11.66;100.00
18678;BME280;9469;51.114;13.914;2024-03-02T07:27:28;97909.44;;;11.74;100.00
18678;BME280;9469;51.114;13.914;2024-03-02T07:32:38;97911.69;;;11.43;100.00
18678;BME280;9469;51.114;13.914;2024-03-02T07:37:48;97914.31;;;11.72;100.00
18678;BME280;9469;51.114;13.914;2024-03-02T07:42:53;97922.16;;;11.48;100.00
18678;BME280;9469;51.114;13.914;2024-03-02T07:48:01;97933.41;;;11.33;100.00
18678;BME280;9469;51.114;13.914;2024-03-02T07:53:06;97942.31;;;10.99;100.00
18678;BME280;9469;51.114;13.914;2024-03-02T07:58:12;97940.16;;;10.93;100.00
18678;BME280;9469;51.114;13.914;2024-03-02T08:03:20;97952.78;;;11.04;100.00
18678;BME280;9469;51.114;13.914;2024-03-02T08:08:25;97953.34;;;11.18;100.00
18678;BME280;9469;51.114;13.914;2024-03-02T08:13:32;97963.88;;;11.15;100.00
18678;BME280;9469;51.114;13.914;2024-03-02T08:18:42;97967.28;;;11.15;100.00
18678;BME280;9469;51.114;13.914;2024-03-02T08:23:47;97965.72;;;10.85;100.00
18678;BME280;9469;51.114;13.914;2024-03-02T08:28:53;97961.75;;;10.45;100.00
18678;BME280;9469;51.114;13.914;2024-03-02T08:34:00;97973.03;;;10.50;100.00
18678;BME280;9469;51.114;13.914;2024-03-02T08:39:08;97975.47;;;10.72;100.00
18678;BME280;9469;51.114;13.914;2024-03-02T08:44:20;97977.50;;;10.75;100.00
18678;BME280;9469;51.114;13.914;2024-03-02T08:49:29;97976.88;;;10.78;100.00
18678;BME280;9469;51.114;13.914;2024-03-02T08:54:35;97968.25;;;11.11;100.00
18678;BME280;9469;51.114;13.914;2024-03-02T08:59:42;97954.22;;;11.02;100.00
18678;BME280;9469;51.114;13.914;2024-03-02T09:04:52;97959.13;;;11.20;100.00
18678;BME280;9469;51.114;13.914;2024-03-02T09:09:57;97976.22;;;10.81;100.00
18678;BME280;9469;51.114;13.914;2024-03-02T09:15:03;97983.94;;;11.04;100.00
18678;BME280;9469;51.114;13.914;2024-03-02T09:20:13;97986.81;;;10.99;100.00
18678;BME280;9469;51.114;13.914;2024-03-02T09:25:18;97976.91;;;11.37;100.00
18678;BME280;9469;51.114;13.914;2024-03-02T09:30:23;97979.75;;;11.32;100.00
18678;BME280;9469;51.114;13.914;2024-03-02T09:35:32;97979.34;;;11.21;100.00
18678;BME280;9469;51.114;13.914;2024-03-02T09:40:41;97998.72;;;11.30;100.00
18678;BME280;9469;51.114;13.914;2024-03-02T09:45:46;98000.75;;;11.25;100.00
18678;BME280;9469;51.114;13.914;2024-03-02T09:50:55;98004.53;;;11.53;100.00
18678;BME280;9469;51.114;13.914;2024-03-02T09:56:01;97993.00;;;11.90;100.00
18678;BME280;9469;51.114;13.914;2024-03-02T10:01:07;97996.81;;;11.60;100.00
18678;BME280;9469;51.114;13.914;2024-03-02T10:06:25;97997.63;;;12.02;100.00
18678;BME280;9469;51.114;13.914;2024-03-02T10:11:31;97979.72;;;11.61;100.00
18678;BME280;9469;51.114;13.914;2024-03-02T10:16:40;97971.94;;;12.18;100.00
18678;BME280;9469;51.114;13.914;2024-03-02T10:21:52;97975.97;;;12.57;100.00
18678;BME280;9469;51.114;13.914;2024-03-02T10:26:59;97966.13;;;13.54;100.00
18678;BME280;9469;51.114;13.914;2024-03-02T10:32:04;97947.69;;;13.77;96.72
18678;BME280;9469;51.114;13.914;2024-03-02T10:37:14;97952.91;;;13.45;96.17
18678;BME280;9469;51.114;13.914;2024-03-02T10:42:21;97952.69;;;13.90;94.87
18678;BME280;9469;51.114;13.914;2024-03-02T10:47:29;97944.38;;;14.35;93.03
18678;BME280;9469;51.114;13.914;2024-03-02T10:52:39;97954.59;;;14.17;89.60
18678;BME280;9469;51.114;13.914;2024-03-02T10:57:51;97946.59;;;14.61;88.17
18678;BME280;9469;51.114;13.914;2024-03-02T11:03:04;97952.69;;;14.46;89.52
18678;BME280;9469;51.114;13.914;2024-03-02T11:08:17;97938.00;;;15.33;86.05
18678;BME280;9469;51.114;13.914;2024-03-02T11:13:30;97944.16;;;13.73;92.97
18678;BME280;9469;51.114;13.914;2024-03-02T11:18:41;97942.94;;;15.47;85.64
18678;BME280;9469;51.114;13.914;2024-03-02T11:23:49;97932.78;;;15.40;85.55
18678;BME280;9469;51.114;13.914;2024-03-02T11:28:54;97932.97;;;15.32;88.20
18678;BME280;9469;51.114;13.914;2024-03-02T11:34:17;97943.25;;;14.08;90.75
18678;BME280;9469;51.114;13.914;2024-03-02T11:39:26;97948.59;;;14.36;90.10
18678;BME280;9469;51.114;13.914;2024-03-02T11:44:32;97943.47;;;13.76;93.85
18678;BME280;9469;51.114;13.914;2024-03-02T11:49:38;97931.56;;;13.73;92.35
18678;BME280;9469;51.114;13.914;2024-03-02T11:54:47;97935.00;;;13.74;91.80
18678;BME280;9469;51.114;13.914;2024-03-02T11:59:54;97933.91;;;13.23;94.86
18678;BME280;9469;51.114;13.914;2024-03-02T12:05:02;97941.19;;;13.02;94.90
18678;BME280;9469;51.114;13.914;2024-03-02T12:10:11;97938.25;;;12.58;96.33
18678;BME280;9469;51.114;13.914;2024-03-02T12:15:16;97941.66;;;12.79;95.87
18678;BME280;9469;51.114;13.914;2024-03-02T12:20:22;97944.09;;;12.84;95.00
18678;BME280;9469;51.114;13.914;2024-03-02T12:25:31;97940.16;;;12.58;96.01
18678;BME280;9469;51.114;13.914;2024-03-02T12:30:36;97936.75;;;12.93;94.83
18678;BME280;9469;51.114;13.914;2024-03-02T12:35:42;97935.97;;;12.81;94.68
18678;BME280;9469;51.114;13.914;2024-03-02T12:40:51;97938.63;;;12.81;95.74
18678;BME280;9469;51.114;13.914;2024-03-02T12:45:57;97929.84;;;12.92;95.46
18678;BME280;9469;51.114;13.914;2024-03-02T12:51:03;97931.41;;;13.42;92.46
18678;BME280;9469;51.114;13.914;2024-03-02T12:56:12;97929.31;;;12.99;93.31
18678;BME280;9469;51.114;13.914;2024-03-02T13:01:17;97926.63;;;12.87;94.84
18678;BME280;9469;51.114;13.914;2024-03-02T13:06:24;97927.44;;;11.98;98.61
18678;BME280;9469;51.114;13.914;2024-03-02T13:11:34;97927.59;;;12.13;97.85
18678;BME280;9469;51.114;13.914;2024-03-02T13:16:41;97920.78;;;12.37;96.52
18678;BME280;9469;51.114;13.914;2024-03-02T13:21:49;97924.28;;;12.16;96.13
18678;BME280;9469;51.114;13.914;2024-03-02T13:26:57;97924.97;;;11.93;96.20
18678;BME280;9469;51.114;13.914;2024-03-02T13:32:03;97917.19;;;12.33;94.80
18678;BME280;9469;51.114;13.914;2024-03-02T13:37:08;97920.59;;;12.54;92.93
18678;BME280;9469;51.114;13.914;2024-03-02T13:42:17;97922.16;;;12.67;92.64
18678;BME280;9469;51.114;13.914;2024-03-02T13:47:23;97920.13;;;12.52;93.11
18678;BME280;9469;51.114;13.914;2024-03-02T13:52:29;97921.03;;;12.11;96.46
18678;BME280;9469;51.114;13.914;2024-03-02T13:57:37;97922.31;;;12.26;95.64
18678;BME280;9469;51.114;13.914;2024-03-02T14:02:42;97919.47;;;12.10;97.51
18678;BME280;9469;51.114;13.914;2024-03-02T14:07:47;97909.38;;;12.60;95.44
18678;BME280;9469;51.114;13.914;2024-03-02T14:12:55;97910.69;;;12.54;95.02
18678;BME280;9469;51.114;13.914;2024-03-02T14:18:01;97911.06;;;12.77;94.63
18678;BME280;9469;51.114;13.914;2024-03-02T14:23:06;97914.81;;;12.76;95.12
18678;BME280;9469;51.114;13.914;2024-03-02T14:28:14;97910.25;;;12.64;94.65
18678;BME280;9469;51.114;13.914;2024-03-02T14:33:41;97915.34;;;12.00;96.23
18678;BME280;9469;51.114;13.914;2024-03-02T14:38:47;97917.44;;;12.28;95.72
18678;BME280;9469;51.114;13.914;2024-03-02T14:43:55;97907.44;;;12.37;94.59
18678;BME280;9469;51.114;13.914;2024-03-02T14:49:00;97917.88;;;12.30;93.97
18678;BME280;9469;51.114;13.914;2024-03-02T14:54:06;97920.06;;;12.96;91.69
18678;BME280;9469;51.114;13.914;2024-03-02T14:59:14;97909.06;;;12.86;91.17
18678;BME280;9469;51.114;13.914;2024-03-02T15:04:19;97912.94;;;12.76;91.71
18678;BME280;9469;51.114;13.914;2024-03-02T15:09:24;97906.81;;;12.52;92.88
18678;BME280;9469;51.114;13.914;2024-03-02T15:14:32;97899.69;;;12.44;93.88
18678;BME280;9469;51.114;13.914;2024-03-02T15:19:37;97900.13;;;12.46;94.18
18678;BME280;9469;51.114;13.914;2024-03-02T15:24:42;97898.00;;;12.39;94.57
18678;BME280;9469;51.114;13.914;2024-03-02T15:29:50;97892.75;;;12.31;94.88
18678;BME280;9469;51.114;13.914;2024-03-02T15:34:56;97895.06;;;12.20;95.94
18678;BME280;9469;51.114;13.914;2024-03-02T15:40:03;97888.22;;;12.31;95.83
18678;BME280;9469;51.114;13.914;2024-03-02T15:45:13;97894.66;;;11.97;98.03
18678;BME280;9469;51.114;13.914;2024-03-02T15:50:18;97891.84;;;11.82;98.53
18678;BME280;9469;51.114;13.914;2024-03-02T15:55:24;97886.16;;;11.63;100.00
18678;BME280;9469;51.114;13.914;2024-03-02T16:00:31;97889.09;;;11.49;100.00
18678;BME280;9469;51.114;13.914;2024-03-02T16:05:37;97877.97;;;11.47;100.00
18678;BME280;9469;51.114;13.914;2024-03-02T16:10:42;97874.81;;;11.74;100.00
18678;BME280;9469;51.114;13.914;2024-03-02T16:15:50;97876.41;;;11.87;99.88
18678;BME280;9469;51.114;13.914;2024-03-02T16:20:55;97878.31;;;11.25;100.00
18678;BME280;9469;51.114;13.914;2024-03-02T16:26:01;97876.53;;;11.08;100.00
18678;BME280;9469;51.114;13.914;2024-03-02T16:31:10;97877.00;;;11.10;100.00
18678;BME280;9469;51.114;13.914;2024-03-02T16:36:22;97877.50;;;11.04;100.00
18678;BME280;9469;51.114;13.914;2024-03-02T16:41:30;97881.19;;;10.91;100.00
18678;BME280;9469;51.114;13.914;2024-03-02T16:46:38;97882.06;;;11.03;100.00
18678;BME280;9469;51.114;13.914;2024-03-02T16:51:43;97882.34;;;11.02;100.00
18678;BME280;9469;51.114;13.914;2024-03-02T16:56:49;97883.56;;;10.83;100.00
18678;BME280;9469;51.114;13.914;2024-03-02T17:01:56;97883.28;;;10.76;100.00
18678;BME280;9469;51.114;13.914;2024-03-02T17:07:02;97881.34;;;10.86;100.00
18678;BME280;9469;51.114;13.914;2024-03-02T17:12:08;97893.63;;;10.78;100.00
18678;BME280;9469;51.114;13.914;2024-03-02T17:17:16;97899.84;;;10.82;100.00
18678;BME280;9469;51.114;13.914;2024-03-02T17:22:22;97904.66;;;10.89;100.00
18678;BME280;9469;51.114;13.914;2024-03-02T17:27:27;97904.22;;;10.87;100.00
18678;BME280;9469;51.114;13.914;2024-03-02T17:32:36;97893.47;;;11.04;100.00
18678;BME280;9469;51.114;13.914;2024-03-02T17:37:46;97897.13;;;10.91;100.00
18678;BME280;9469;51.114;13.914;2024-03-02T17:42:53;97893.38;;;10.92;100.00
18678;BME280;9469;51.114;13.914;2024-03-02T17:48:00;97890.78;;;10.74;100.00
18678;BME280;9469;51.114;13.914;2024-03-02T17:53:06;97893.84;;;10.64;100.00
18678;BME280;9469;51.114;13.914;2024-03-02T17:58:11;97882.22;;;10.31;100.00
18678;BME280;9469;51.114;13.914;2024-03-02T18:03:21;97891.16;;;10.18;100.00
18678;BME280;9469;51.114;13.914;2024-03-02T18:08:27;97882.00;;;9.81;100.00
18678;BME280;9469;51.114;13.914;2024-03-02T18:13:32;97890.25;;;9.97;100.00
18678;BME280;9469;51.114;13.914;2024-03-02T18:18:40;97892.44;;;9.86;100.00
18678;BME280;9469;51.114;13.914;2024-03-02T18:23:45;97890.41;;;9.83;100.00
18678;BME280;9469;51.114;13.914;2024-03-02T18:28:51;97886.06;;;9.79;100.00
18678;BME280;9469;51.114;13.914;2024-03-02T18:33:58;97879.78;;;9.75;100.00
18678;BME280;9469;51.114;13.914;2024-03-02T18:39:04;97884.00;;;9.42;100.00
18678;BME280;9469;51.114;13.914;2024-03-02T18:44:09;97876.53;;;9.44;100.00
18678;BME280;9469;51.114;13.914;2024-03-02T18:49:17;97879.78;;;9.23;100.00
18678;BME280;9469;51.114;13.914;2024-03-02T18:54:22;97882.25;;;8.94;100.00
18678;BME280;9469;51.114;13.914;2024-03-02T18:59:28;97871.28;;;8.87;100.00
18678;BME280;9469;51.114;13.914;2024-03-02T19:04:35;97885.31;;;8.79;100.00
18678;BME280;9469;51.114;13.914;2024-03-02T19:09:40;97877.72;;;8.86;100.00
18678;BME280;9469;51.114;13.914;2024-03-02T19:14:46;97874.59;;;8.84;100.00
18678;BME280;9469;51.114;13.914;2024-03-02T19:19:53;97868.38;;;9.06;100.00
18678;BME280;9469;51.114;13.914;2024-03-02T19:24:58;97865.06;;;8.92;100.00
18678;BME280;9469;51.114;13.914;2024-03-02T19:30:04;97858.19;;;8.82;100.00
18678;BME280;9469;51.114;13.914;2024-03-02T19:35:14;97862.94;;;9.02;100.00
18678;BME280;9469;51.114;13.914;2024-03-02T19:40:19;97849.47;;;8.90;100.00
18678;BME280;9469;51.114;13.914;2024-03-02T19:45:24;97854.31;;;8.97;100.00
18678;BME280;9469;51.114;13.914;2024-03-02T19:50:32;97853.75;;;9.43;100.00
18678;BME280;9469;51.114;13.914;2024-03-02T19:55:38;97847.81;;;8.55;100.00
18678;BME280;9469;51.114;13.914;2024-03-02T20:00:46;97835.47;;;9.15;100.00
18678;BME280;9469;51.114;13.914;2024-03-02T20:05:54;97830.00;;;9.63;100.00
18678;BME280;9469;51.114;13.914;2024-03-02T20:11:02;97827.34;;;9.63;100.00
18678;BME280;9469;51.114;13.914;2024-03-02T20:16:07;97815.63;;;9.38;100.00
18678;BME280;9469;51.114;13.914;2024-03-02T20:21:15;97818.44;;;9.08;100.00
18678;BME280;9469;51.114;13.914;2024-03-02T20:26:21;97815.78;;;9.51;100.00
18678;BME280;9469;51.114;13.914;2024-03-02T20:31:26;97815.16;;;9.28;100.00
18678;BME280;9469;51.114;13.914;2024-03-02T20:36:34;97807.81;;;9.25;100.00
18678;BME280;9469;51.114;13.914;2024-03-02T20:41:44;97801.13;;;9.27;100.00
18678;BME280;9469;51.114;13.914;2024-03-02T20:46:49;97797.84;;;9.22;100.00
18678;BME280;9469;51.114;13.914;2024-03-02T20:51:57;97796.00;;;9.22;100.00
18678;BME280;9469;51.114;13.914;2024-03-02T20:57:02;97791.16;;;9.24;100.00
18678;BME280;9469;51.114;13.914;2024-03-02T21:02:09;97793.94;;;9.28;100.00
18678;BME280;9469;51.114;13.914;2024-03-02T21:07:17;97795.34;;;9.25;100.00
18678;BME280;9469;51.114;13.914;2024-03-02T21:12:22;97790.53;;;9.02;100.00
18678;BME280;9469;51.114;13.914;2024-03-02T21:17:27;97788.47;;;8.99;100.00
18678;BME280;9469;51.114;13.914;2024-03-02T21:22:35;97789.25;;;8.91;100.00
18678;BME280;9469;51.114;13.914;2024-03-02T21:27:48;97789.25;;;8.91;100.00
18678;BME280;9469;51.114;13.914;2024-03-02T21:32:53;97786.75;;;9.11;100.00
18678;BME280;9469;51.114;13.914;2024-03-02T21:38:01;97793.63;;;9.29;100.00
18678;BME280;9469;51.114;13.914;2024-03-02T21:43:07;97790.66;;;9.39;100.00
18678;BME280;9469;51.114;13.914;2024-03-02T21:48:13;97789.09;;;9.47;100.00
18678;BME280;9469;51.114;13.914;2024-03-02T21:53:21;97783.94;;;9.51;100.00
18678;BME280;9469;51.114;13.914;2024-03-02T21:58:26;97779.06;;;9.61;100.00
18678;BME280;9469;51.114;13.914;2024-03-02T22:03:31;97774.69;;;9.57;100.00
18678;BME280;9469;51.114;13.914;2024-03-02T22:08:39;97767.97;;;9.68;100.00
18678;BME280;9469;51.114;13.914;2024-03-02T22:13:44;97780.16;;;9.69;100.00
18678;BME280;9469;51.114;13.914;2024-03-02T22:18:51;97766.38;;;9.75;100.00
18678;BME280;9469;51.114;13.914;2024-03-02T22:23:59;97775.75;;;9.73;100.00
18678;BME280;9469;51.114;13.914;2024-03-02T22:29:04;97780.44;;;9.76;100.00
18678;BME280;9469;51.114;13.914;2024-03-02T22:34:10;97757.38;;;9.68;100.00
18678;BME280;9469;51.114;13.914;2024-03-02T22:39:18;97765.78;;;9.70;100.00
18678;BME280;9469;51.114;13.914;2024-03-02T22:44:23;97759.81;;;9.73;100.00
18678;BME280;9469;51.114;13.914;2024-03-02T22:49:28;97764.16;;;9.94;100.00
18678;BME280;9469;51.114;13.914;2024-03-02T22:54:36;97761.53;;;9.77;100.00
18678;BME280;9469;51.114;13.914;2024-03-02T22:59:42;97755.91;;;9.70;100.00
18678;BME280;9469;51.114;13.914;2024-03-02T23:04:47;97757.81;;;9.70;100.00
18678;BME280;9469;51.114;13.914;2024-03-02T23:09:55;97750.16;;;9.77;100.00
18678;BME280;9469;51.114;13.914;2024-03-02T23:15:00;97754.03;;;9.79;100.00
18678;BME280;9469;51.114;13.914;2024-03-02T23:20:06;97748.88;;;9.83;100.00
18678;BME280;9469;51.114;13.914;2024-03-02T23:25:14;97747.34;;;9.73;100.00
18678;BME280;9469;51.114;13.914;2024-03-02T23:30:20;97732.53;;;9.55;100.00
18678;BME280;9469;51.114;13.914;2024-03-02T23:35:26;97728.16;;;9.59;100.00
18678;BME280;9469;51.114;13.914;2024-03-02T23:40:34;97728.03;;;9.56;100.00
18678;BME280;9469;51.114;13.914;2024-03-02T23:45:59;97729.81;;;9.81;100.00
18678;BME280;9469;51.114;13.914;2024-03-02T23:51:04;97726.16;;;9.48;100.00
18678;BME280;9469;51.114;13.914;2024-03-02T23:56:12;97729.72;;;9.60;100.00
